createdAt,value
2017-04-11T00:00:00.393Z,0
2017-04-11T00:01:00.969Z,0
2017-04-11T00:02:01.554Z,0
2017-04-11T00:03:02.142Z,0
2017-04-11T00:04:02.730Z,0
2017-04-11T00:05:03.501Z,0
2017-04-11T00:06:04.074Z,0
2017-04-11T00:07:04.643Z,0
2017-04-11T00:08:05.233Z,0
2017-04-11T00:09:05.822Z,0
2017-04-11T00:10:06.393Z,0
2017-04-11T00:11:06.964Z,0
2017-04-11T00:12:07.553Z,0
2017-04-11T00:13:08.123Z,0
2017-04-11T00:14:08.694Z,0
2017-04-11T00:15:09.268Z,0
2017-04-11T00:16:09.857Z,0
2017-04-11T00:17:10.428Z,0
2017-04-11T00:18:10.999Z,0
2017-04-11T00:19:11.587Z,0
2017-04-11T00:20:12.374Z,0
2017-04-11T00:21:12.946Z,0
2017-04-11T00:22:13.533Z,0
2017-04-11T00:23:14.105Z,0
2017-04-11T00:24:14.675Z,0
2017-04-11T00:25:15.245Z,0
2017-04-11T00:26:15.816Z,0
2017-04-11T00:27:16.387Z,0
2017-04-11T00:28:16.960Z,0
2017-04-11T00:29:17.531Z,0
2017-04-11T00:30:18.103Z,0
2017-04-11T00:31:18.676Z,0
2017-04-11T00:32:19.248Z,0
2017-04-11T00:33:19.820Z,0
2017-04-11T00:34:20.394Z,0
2017-04-11T00:35:21.165Z,0
2017-04-11T00:36:21.739Z,0
2017-04-11T00:37:22.307Z,0
2017-04-11T00:38:22.877Z,0
2017-04-11T00:39:23.448Z,0
2017-04-11T00:40:24.020Z,0
2017-04-11T00:41:24.592Z,0
2017-04-11T00:42:25.173Z,0
2017-04-11T00:43:25.735Z,0
2017-04-11T00:44:26.306Z,0
2017-04-11T00:45:26.877Z,0
2017-04-11T00:46:27.448Z,0
2017-04-11T00:47:28.020Z,0
2017-04-11T00:48:28.591Z,0
2017-04-11T00:49:29.165Z,0
2017-04-11T00:50:29.936Z,0
2017-04-11T00:51:30.509Z,0
2017-04-11T00:52:31.078Z,0
2017-04-11T00:53:31.648Z,0
2017-04-11T00:54:32.219Z,0
2017-04-11T00:55:32.791Z,0
2017-04-11T00:56:33.365Z,0
2017-04-11T00:57:33.934Z,0
2017-04-11T00:58:34.504Z,0
2017-04-11T00:59:35.094Z,0
2017-04-11T01:00:35.665Z,0
2017-04-11T01:01:36.235Z,0
2017-04-11T01:02:36.807Z,0
2017-04-11T01:03:37.378Z,0
2017-04-11T01:04:37.951Z,0
2017-04-11T01:05:38.723Z,0
2017-04-11T01:06:39.296Z,0
2017-04-11T01:07:39.868Z,0
2017-04-11T01:08:40.440Z,0
2017-04-11T01:09:41.011Z,0
2017-04-11T01:10:41.584Z,0
2017-04-11T01:11:42.174Z,0
2017-04-11T01:12:42.747Z,0
2017-04-11T01:13:43.318Z,0
2017-04-11T01:14:43.908Z,0
2017-04-11T01:15:44.481Z,0
2017-04-11T01:16:45.053Z,0
2017-04-11T01:17:45.643Z,0
2017-04-11T01:18:46.214Z,0
2017-04-11T01:19:46.787Z,0
2017-04-11T01:20:47.558Z,0
2017-04-11T01:21:48.132Z,0
2017-04-11T01:22:48.704Z,0
2017-04-11T01:23:49.275Z,0
2017-04-11T01:24:49.852Z,0
2017-04-11T01:25:50.420Z,0
2017-04-11T01:26:51.013Z,0
2017-04-11T01:27:51.580Z,0
2017-04-11T01:28:52.152Z,0
2017-04-11T01:29:52.725Z,0
2017-04-11T01:30:53.296Z,0
2017-04-11T01:31:53.867Z,0
2017-04-11T01:32:54.441Z,0
2017-04-11T01:33:55.012Z,0
2017-04-11T01:34:55.584Z,0
2017-04-11T01:35:56.355Z,0
2017-04-11T01:36:56.943Z,0
2017-04-11T01:37:57.515Z,0
2017-04-11T01:38:58.087Z,0
2017-04-11T01:39:58.674Z,0
2017-04-11T01:40:59.247Z,0
2017-04-11T01:41:59.819Z,0
2017-04-11T01:43:00.390Z,0
2017-04-11T01:44:00.962Z,0
2017-04-11T01:45:01.534Z,0
2017-04-11T01:46:02.105Z,0
2017-04-11T01:47:02.676Z,0
2017-04-11T01:48:03.248Z,0
2017-04-11T01:49:03.821Z,0
2017-04-11T01:50:04.392Z,0
2017-04-11T01:51:05.179Z,0
2017-04-11T01:52:05.753Z,0
2017-04-11T01:53:06.342Z,0
2017-04-11T01:54:06.912Z,0
2017-04-11T01:55:07.485Z,0
2017-04-11T01:56:08.056Z,0
2017-04-11T01:57:08.626Z,0
2017-04-11T01:58:09.197Z,0
2017-04-11T01:59:09.788Z,0
2017-04-11T02:00:10.357Z,0
2017-04-11T02:01:10.927Z,0
2017-04-11T02:02:11.500Z,0
2017-04-11T02:03:12.086Z,0
2017-04-11T02:04:12.658Z,0
2017-04-11T02:05:13.227Z,0
2017-04-11T02:06:14.001Z,0
2017-04-11T02:07:14.570Z,0
2017-04-11T02:08:15.143Z,0
2017-04-11T02:09:15.714Z,0
2017-04-11T02:10:16.286Z,0
2017-04-11T02:11:16.874Z,0
2017-04-11T02:12:17.445Z,0
2017-04-11T02:13:18.016Z,0
2017-04-11T02:14:18.592Z,0
2017-04-11T02:15:19.179Z,0
2017-04-11T02:16:19.749Z,0
2017-04-11T02:17:20.322Z,0
2017-04-11T02:18:20.893Z,0
2017-04-11T02:19:21.465Z,0
2017-04-11T02:20:22.036Z,0
2017-04-11T02:21:22.809Z,0
2017-04-11T02:22:23.379Z,0
2017-04-11T02:23:23.949Z,0
2017-04-11T02:24:24.522Z,0
2017-04-11T02:25:25.095Z,0
2017-04-11T02:26:25.666Z,0
2017-04-11T02:27:26.237Z,0
2017-04-11T02:28:26.809Z,0
2017-04-11T02:29:27.381Z,0
2017-04-11T02:30:27.952Z,0
2017-04-11T02:31:28.524Z,0
2017-04-11T02:32:29.117Z,0
2017-04-11T02:33:29.683Z,0
2017-04-11T02:34:30.254Z,0
2017-04-11T02:35:30.826Z,0
2017-04-11T02:36:31.616Z,0
2017-04-11T02:37:32.187Z,0
2017-04-11T02:38:32.757Z,0
2017-04-11T02:39:33.328Z,0
2017-04-11T02:40:33.900Z,0
2017-04-11T02:41:34.471Z,0
2017-04-11T02:42:35.042Z,0
2017-04-11T02:43:35.614Z,0
2017-04-11T02:44:36.186Z,0
2017-04-11T02:45:36.757Z,0
2017-04-11T02:46:37.328Z,0
2017-04-11T02:47:37.899Z,0
2017-04-11T02:48:38.474Z,0
2017-04-11T02:49:39.049Z,0
2017-04-11T02:50:39.616Z,0
2017-04-11T02:51:40.390Z,0
2017-04-11T02:52:40.961Z,0
2017-04-11T02:53:41.537Z,0
2017-04-11T02:54:42.106Z,0
2017-04-11T02:55:42.678Z,0
2017-04-11T02:56:43.250Z,0
2017-04-11T02:57:43.821Z,0
2017-04-11T02:58:44.393Z,0
2017-04-11T02:59:44.963Z,0
2017-04-11T03:00:45.535Z,0
2017-04-11T03:01:46.108Z,0
2017-04-11T03:02:46.679Z,0
2017-04-11T03:03:47.268Z,0
2017-04-11T03:04:47.824Z,0
2017-04-11T03:05:48.395Z,0
2017-04-11T03:06:49.166Z,0
2017-04-11T03:07:49.737Z,0
2017-04-11T03:08:50.309Z,0
2017-04-11T03:09:50.881Z,0
2017-04-11T03:10:51.471Z,0
2017-04-11T03:11:52.042Z,0
2017-04-11T03:12:52.614Z,0
2017-04-11T03:13:53.186Z,0
2017-04-11T03:14:53.758Z,0
2017-04-11T03:15:54.331Z,0
2017-04-11T03:16:54.906Z,0
2017-04-11T03:17:55.474Z,0
2017-04-11T03:18:56.046Z,0
2017-04-11T03:19:56.617Z,0
2017-04-11T03:20:57.188Z,0
2017-04-11T03:21:57.961Z,0
2017-04-11T03:22:58.530Z,0
2017-04-11T03:23:59.101Z,0
2017-04-11T03:24:59.678Z,0
2017-04-11T03:26:00.246Z,0
2017-04-11T03:27:00.816Z,0
2017-04-11T03:28:01.386Z,0
2017-04-11T03:29:01.960Z,0
2017-04-11T03:30:02.531Z,0
2017-04-11T03:31:03.102Z,0
2017-04-11T03:32:03.673Z,0
2017-04-11T03:33:04.244Z,0
2017-04-11T03:34:04.817Z,0
2017-04-11T03:35:05.388Z,0
2017-04-11T03:36:05.962Z,0
2017-04-11T03:37:06.734Z,0
2017-04-11T03:38:07.305Z,0
2017-04-11T03:39:07.878Z,0
2017-04-11T03:40:08.467Z,0
2017-04-11T03:41:09.038Z,0
2017-04-11T03:42:09.609Z,0
2017-04-11T03:43:10.182Z,0
2017-04-11T03:44:10.751Z,0
2017-04-11T03:45:11.324Z,0
2017-04-11T03:46:11.893Z,0
2017-04-11T03:47:12.465Z,0
2017-04-11T03:48:13.038Z,0
2017-04-11T03:49:13.609Z,0
2017-04-11T03:50:14.197Z,0
2017-04-11T03:51:14.786Z,0
2017-04-11T03:52:15.558Z,0
2017-04-11T03:53:16.133Z,0
2017-04-11T03:54:16.700Z,0
2017-04-11T03:55:17.275Z,0
2017-04-11T03:56:17.864Z,0
2017-04-11T03:57:18.436Z,0
2017-04-11T03:58:19.006Z,0
2017-04-11T03:59:19.579Z,0
2017-04-11T04:00:20.168Z,0
2017-04-11T04:01:20.740Z,0
2017-04-11T04:02:21.311Z,0
2017-04-11T04:03:21.899Z,0
2017-04-11T04:04:22.471Z,0
2017-04-11T04:05:23.043Z,0
2017-04-11T04:06:23.614Z,0
2017-04-11T04:07:24.184Z,0
2017-04-11T04:08:24.757Z,0
2017-04-11T04:09:25.330Z,0
2017-04-11T04:10:25.901Z,0
2017-04-11T04:11:26.472Z,0
2017-04-11T04:12:27.045Z,0
2017-04-11T04:13:27.615Z,0
2017-04-11T04:14:28.190Z,0
2017-04-11T04:15:28.757Z,0
2017-04-11T04:16:29.330Z,0
2017-04-11T04:17:29.902Z,0
2017-04-11T04:18:30.476Z,0
2017-04-11T04:19:31.045Z,0
2017-04-11T04:20:31.617Z,0
2017-04-11T04:21:32.190Z,0
2017-04-11T04:22:32.962Z,0
2017-04-11T04:23:33.533Z,0
2017-04-11T04:24:34.105Z,0
2017-04-11T04:25:34.679Z,0
2017-04-11T04:26:35.251Z,0
2017-04-11T04:27:35.822Z,0
2017-04-11T04:28:36.394Z,0
2017-04-11T04:29:36.967Z,0
2017-04-11T04:30:37.540Z,0
2017-04-11T04:31:38.129Z,0
2017-04-11T04:32:38.704Z,0
2017-04-11T04:33:39.275Z,0
2017-04-11T04:34:39.847Z,0
2017-04-11T04:35:40.422Z,0
2017-04-11T04:36:40.995Z,0
2017-04-11T04:37:41.766Z,5
2017-04-11T04:38:42.338Z,5
2017-04-11T04:39:42.911Z,5
2017-04-11T04:40:43.486Z,5
2017-04-11T04:41:44.058Z,5
2017-04-11T04:42:44.632Z,5
2017-04-11T04:43:45.205Z,5
2017-04-11T04:44:45.778Z,5
2017-04-11T04:45:46.351Z,5
2017-04-11T04:46:46.927Z,5
2017-04-11T04:47:47.499Z,5
2017-04-11T04:48:48.074Z,10
2017-04-11T04:49:48.650Z,10
2017-04-11T04:50:49.224Z,10
2017-04-11T04:51:49.799Z,10
2017-04-11T04:52:50.374Z,10
2017-04-11T04:53:50.949Z,10
2017-04-11T04:54:51.523Z,10
2017-04-11T04:55:52.097Z,10
2017-04-11T04:56:52.687Z,15
2017-04-11T04:57:53.262Z,15
2017-04-11T04:58:53.836Z,15
2017-04-11T04:59:54.410Z,15
2017-04-11T05:00:54.985Z,15
2017-04-11T05:01:55.561Z,15
2017-04-11T05:02:56.133Z,15
2017-04-11T05:03:56.707Z,15
2017-04-11T05:04:57.282Z,20
2017-04-11T05:05:57.857Z,20
2017-04-11T05:06:58.433Z,20
2017-04-11T05:07:59.008Z,20
2017-04-11T05:08:59.583Z,20
2017-04-11T05:10:00.157Z,25
2017-04-11T05:11:00.731Z,25
2017-04-11T05:12:01.307Z,25
2017-04-11T05:13:01.883Z,25
2017-04-11T05:14:02.457Z,25
2017-04-11T05:15:03.032Z,25
2017-04-11T05:16:03.609Z,25
2017-04-11T05:17:04.184Z,25
2017-04-11T05:18:04.957Z,20
2017-04-11T05:19:05.531Z,20
2017-04-11T05:20:06.105Z,20
2017-04-11T05:21:06.680Z,20
2017-04-11T05:22:07.273Z,20
2017-04-11T05:23:07.847Z,20
2017-04-11T05:24:08.421Z,20
2017-04-11T05:25:08.997Z,20
2017-04-11T05:26:09.574Z,20
2017-04-11T05:27:10.164Z,20
2017-04-11T05:28:10.740Z,20
2017-04-11T05:29:11.314Z,20
2017-04-11T05:30:11.889Z,25
2017-04-11T05:31:12.465Z,25
2017-04-11T05:32:13.039Z,25
2017-04-11T05:33:13.815Z,25
2017-04-11T05:34:14.389Z,25
2017-04-11T05:35:14.964Z,25
2017-04-11T05:36:15.538Z,25
2017-04-11T05:37:16.113Z,20
2017-04-11T05:38:16.688Z,20
2017-04-11T05:39:17.263Z,20
2017-04-11T05:40:17.838Z,20
2017-04-11T05:41:18.417Z,20
2017-04-11T05:42:18.990Z,20
2017-04-11T05:43:19.564Z,20
2017-04-11T05:44:20.141Z,20
2017-04-11T05:45:20.715Z,25
2017-04-11T05:46:21.290Z,25
2017-04-11T05:47:21.864Z,25
2017-04-11T05:48:22.639Z,30
2017-04-11T05:49:23.232Z,35
2017-04-11T05:50:23.808Z,35
2017-04-11T05:51:24.402Z,35
2017-04-11T05:52:24.997Z,40
2017-04-11T05:53:25.569Z,40
2017-04-11T05:54:26.146Z,45
2017-04-11T05:55:26.724Z,45
2017-04-11T05:56:27.300Z,50
2017-04-11T05:57:27.877Z,50
2017-04-11T05:58:28.453Z,55
2017-04-11T05:59:29.031Z,55
2017-04-11T06:00:29.606Z,55
2017-04-11T06:01:30.182Z,55
2017-04-11T06:02:30.759Z,55
2017-04-11T06:03:31.334Z,55
2017-04-11T06:04:31.909Z,55
2017-04-11T06:05:32.483Z,55
2017-04-11T06:06:33.062Z,55
2017-04-11T06:07:33.637Z,55
2017-04-11T06:08:34.413Z,55
2017-04-11T06:09:35.004Z,55
2017-04-11T06:10:35.582Z,55
2017-04-11T06:11:36.157Z,55
2017-04-11T06:12:36.733Z,55
2017-04-11T06:13:37.311Z,55
2017-04-11T06:14:37.886Z,55
2017-04-11T06:15:38.462Z,50
2017-04-11T06:16:39.039Z,45
2017-04-11T06:17:39.615Z,50
2017-04-11T06:18:40.191Z,50
2017-04-11T06:19:40.766Z,50
2017-04-11T06:20:41.343Z,50
2017-04-11T06:21:41.919Z,55
2017-04-11T06:22:42.497Z,50
2017-04-11T06:23:43.073Z,50
2017-04-11T06:24:43.651Z,50
2017-04-11T06:25:44.225Z,50
2017-04-11T06:26:44.802Z,45
2017-04-11T06:27:45.377Z,45
2017-04-11T06:28:45.952Z,45
2017-04-11T06:29:46.544Z,45
2017-04-11T06:30:47.122Z,50
2017-04-11T06:31:47.705Z,50
2017-04-11T06:32:48.293Z,50
2017-04-11T06:33:48.867Z,45
2017-04-11T06:34:49.443Z,50
2017-04-11T06:35:50.022Z,45
2017-04-11T06:36:50.597Z,40
2017-04-11T06:37:51.173Z,40
2017-04-11T06:38:51.749Z,40
2017-04-11T06:39:52.326Z,50
2017-04-11T06:40:52.903Z,45
2017-04-11T06:41:53.497Z,45
2017-04-11T06:42:54.090Z,45
2017-04-11T06:43:54.865Z,45
2017-04-11T06:44:55.459Z,50
2017-04-11T06:45:56.035Z,55
2017-04-11T06:46:56.614Z,55
2017-04-11T06:47:57.189Z,55
2017-04-11T06:48:57.765Z,55
2017-04-11T06:49:58.341Z,55
2017-04-11T06:50:58.918Z,55
2017-04-11T06:51:59.496Z,55
2017-04-11T06:53:00.071Z,55
2017-04-11T06:54:00.648Z,55
2017-04-11T06:55:01.233Z,55
2017-04-11T06:56:01.803Z,55
2017-04-11T06:57:02.378Z,55
2017-04-11T06:58:02.955Z,55
2017-04-11T06:59:03.532Z,55
2017-04-11T07:00:04.108Z,55
2017-04-11T07:01:04.684Z,55
2017-04-11T07:02:05.262Z,55
2017-04-11T07:03:05.836Z,60
2017-04-11T07:04:06.613Z,60
2017-04-11T07:05:07.191Z,65
2017-04-11T07:06:07.767Z,65
2017-04-11T07:07:08.344Z,65
2017-04-11T07:08:08.921Z,65
2017-04-11T07:09:09.500Z,65
2017-04-11T07:10:10.076Z,70
2017-04-11T07:11:10.652Z,70
2017-04-11T07:12:11.228Z,75
2017-04-11T07:13:11.805Z,80
2017-04-11T07:14:12.382Z,90
2017-04-11T07:15:12.959Z,100
2017-04-11T07:16:13.540Z,100
2017-04-11T07:17:14.115Z,105
2017-04-11T07:18:14.692Z,105
2017-04-11T07:19:15.269Z,110
2017-04-11T07:20:15.847Z,115
2017-04-11T07:21:16.429Z,120
2017-04-11T07:22:17.002Z,130
2017-04-11T07:23:17.579Z,140
2017-04-11T07:24:18.177Z,150
2017-04-11T07:25:18.752Z,160
2017-04-11T07:26:19.335Z,180
2017-04-11T07:27:19.907Z,190
2017-04-11T07:28:20.486Z,195
2017-04-11T07:29:21.063Z,200
2017-04-11T07:30:21.643Z,200
2017-04-11T07:31:22.222Z,195
2017-04-11T07:32:22.799Z,200
2017-04-11T07:33:23.377Z,200
2017-04-11T07:34:23.956Z,200
2017-04-11T07:35:24.534Z,205
2017-04-11T07:36:25.116Z,205
2017-04-11T07:37:25.690Z,210
2017-04-11T07:38:26.270Z,205
2017-04-11T07:39:26.850Z,210
2017-04-11T07:40:27.427Z,205
2017-04-11T07:41:28.004Z,200
2017-04-11T07:42:28.584Z,190
2017-04-11T07:43:29.166Z,190
2017-04-11T07:44:29.742Z,215
2017-04-11T07:45:30.362Z,220
2017-04-11T07:46:30.900Z,220
2017-04-11T07:47:31.480Z,215
2017-04-11T07:48:32.058Z,215
2017-04-11T07:49:32.638Z,220
2017-04-11T07:50:33.216Z,220
2017-04-11T07:51:33.797Z,220
2017-04-11T07:52:34.375Z,215
2017-04-11T07:53:34.955Z,215
2017-04-11T07:54:35.734Z,220
2017-04-11T07:55:36.312Z,215
2017-04-11T07:56:36.891Z,215
2017-04-11T07:57:37.469Z,220
2017-04-11T07:58:38.049Z,225
2017-04-11T07:59:38.627Z,225
2017-04-11T08:00:39.206Z,225
2017-04-11T08:01:39.785Z,215
2017-04-11T08:02:40.367Z,215
2017-04-11T08:03:40.945Z,220
2017-04-11T08:04:41.725Z,230
2017-04-11T08:05:42.306Z,225
2017-04-11T08:06:42.884Z,215
2017-04-11T08:07:43.464Z,215
2017-04-11T08:08:44.041Z,215
2017-04-11T08:09:44.622Z,215
2017-04-11T08:10:45.200Z,215
2017-04-11T08:11:45.781Z,220
2017-04-11T08:12:46.359Z,230
2017-04-11T08:13:46.941Z,245
2017-04-11T08:14:47.537Z,255
2017-04-11T08:15:48.118Z,255
2017-04-11T08:16:48.696Z,255
2017-04-11T08:17:49.275Z,265
2017-04-11T08:18:49.854Z,265
2017-04-11T08:19:50.636Z,265
2017-04-11T08:20:51.218Z,265
2017-04-11T08:21:51.796Z,265
2017-04-11T08:22:52.377Z,260
2017-04-11T08:23:52.956Z,260
2017-04-11T08:24:53.534Z,260
2017-04-11T08:25:54.114Z,265
2017-04-11T08:26:54.694Z,270
2017-04-11T08:27:55.283Z,275
2017-04-11T08:28:55.853Z,280
2017-04-11T08:29:56.433Z,285
2017-04-11T08:30:57.012Z,275
2017-04-11T08:31:57.591Z,280
2017-04-11T08:32:58.172Z,280
2017-04-11T08:33:58.751Z,280
2017-04-11T08:34:59.533Z,285
2017-04-11T08:36:00.114Z,290
2017-04-11T08:37:00.692Z,285
2017-04-11T08:38:01.272Z,280
2017-04-11T08:39:01.904Z,280
2017-04-11T08:40:02.456Z,275
2017-04-11T08:41:03.035Z,275
2017-04-11T08:42:03.615Z,270
2017-04-11T08:43:04.195Z,245
2017-04-11T08:44:04.777Z,250
2017-04-11T08:45:05.374Z,255
2017-04-11T08:46:05.955Z,260
2017-04-11T08:47:06.534Z,265
2017-04-11T08:48:07.115Z,290
2017-04-11T08:49:07.696Z,305
2017-04-11T08:50:08.495Z,305
2017-04-11T08:51:09.078Z,300
2017-04-11T08:52:09.656Z,300
2017-04-11T08:53:10.241Z,290
2017-04-11T08:54:10.817Z,280
2017-04-11T08:55:11.399Z,280
2017-04-11T08:56:11.979Z,280
2017-04-11T08:57:12.601Z,290
2017-04-11T08:58:13.140Z,290
2017-04-11T08:59:13.723Z,290
2017-04-11T09:00:14.303Z,285
2017-04-11T09:01:14.883Z,285
2017-04-11T09:02:15.464Z,285
2017-04-11T09:03:16.046Z,290
2017-04-11T09:04:16.628Z,280
2017-04-11T09:05:17.208Z,290
2017-04-11T09:06:17.790Z,275
2017-04-11T09:07:18.373Z,255
2017-04-11T09:08:18.970Z,235
2017-04-11T09:09:19.551Z,205
2017-04-11T09:10:20.133Z,185
2017-04-11T09:11:20.712Z,170
2017-04-11T09:12:21.293Z,175
2017-04-11T09:13:21.874Z,170
2017-04-11T09:14:22.461Z,190
2017-04-11T09:15:23.235Z,200
2017-04-11T09:16:23.816Z,190
2017-04-11T09:17:24.413Z,195
2017-04-11T09:18:24.994Z,195
2017-04-11T09:19:25.574Z,185
2017-04-11T09:20:26.156Z,190
2017-04-11T09:21:26.733Z,210
2017-04-11T09:22:27.314Z,230
2017-04-11T09:23:27.893Z,265
2017-04-11T09:24:28.474Z,285
2017-04-11T09:25:29.053Z,310
2017-04-11T09:26:29.634Z,300
2017-04-11T09:27:30.229Z,300
2017-04-11T09:28:30.812Z,280
2017-04-11T09:29:31.391Z,255
2017-04-11T09:30:32.173Z,245
2017-04-11T09:31:32.755Z,205
2017-04-11T09:32:33.335Z,175
2017-04-11T09:33:33.917Z,200
2017-04-11T09:34:34.496Z,230
2017-04-11T09:35:35.095Z,250
2017-04-11T09:36:35.678Z,280
2017-04-11T09:37:36.259Z,255
2017-04-11T09:38:36.837Z,240
2017-04-11T09:39:37.419Z,220
2017-04-11T09:40:37.999Z,235
2017-04-11T09:41:38.580Z,240
2017-04-11T09:42:39.161Z,220
2017-04-11T09:43:39.741Z,205
2017-04-11T09:44:40.320Z,200
2017-04-11T09:45:41.102Z,180
2017-04-11T09:46:41.683Z,180
2017-04-11T09:47:42.264Z,170
2017-04-11T09:48:42.852Z,180
2017-04-11T09:49:43.427Z,180
2017-04-11T09:50:44.008Z,180
2017-04-11T09:51:44.587Z,180
2017-04-11T09:52:45.170Z,185
2017-04-11T09:53:45.750Z,180
2017-04-11T09:54:46.332Z,160
2017-04-11T09:55:46.928Z,165
2017-04-11T09:56:47.510Z,175
2017-04-11T09:57:48.089Z,180
2017-04-11T09:58:48.670Z,200
2017-04-11T09:59:49.250Z,205
2017-04-11T10:00:49.830Z,220
2017-04-11T10:01:50.410Z,260
2017-04-11T10:02:50.992Z,305
2017-04-11T10:03:51.573Z,340
2017-04-11T10:04:52.155Z,350
2017-04-11T10:05:52.736Z,365
2017-04-11T10:06:53.321Z,350
2017-04-11T10:07:53.903Z,335
2017-04-11T10:08:54.502Z,300
2017-04-11T10:09:55.083Z,285
2017-04-11T10:10:55.664Z,295
2017-04-11T10:11:56.243Z,295
2017-04-11T10:12:56.826Z,290
2017-04-11T10:13:57.409Z,285
2017-04-11T10:14:57.989Z,290
2017-04-11T10:15:58.572Z,295
2017-04-11T10:16:59.154Z,305
2017-04-11T10:17:59.737Z,305
2017-04-11T10:19:00.317Z,300
2017-04-11T10:20:00.900Z,305
2017-04-11T10:21:01.486Z,310
2017-04-11T10:22:02.066Z,320
2017-04-11T10:23:02.651Z,315
2017-04-11T10:24:03.233Z,340
2017-04-11T10:25:03.816Z,340
2017-04-11T10:26:04.402Z,350
2017-04-11T10:27:04.982Z,365
2017-04-11T10:28:05.564Z,355
2017-04-11T10:29:06.145Z,335
2017-04-11T10:30:06.728Z,330
2017-04-11T10:31:07.327Z,335
2017-04-11T10:32:07.909Z,350
2017-04-11T10:33:08.509Z,340
2017-04-11T10:34:09.092Z,320
2017-04-11T10:35:09.680Z,295
2017-04-11T10:36:10.258Z,280
2017-04-11T10:37:10.858Z,285
2017-04-11T10:38:11.439Z,300
2017-04-11T10:39:12.022Z,315
2017-04-11T10:40:12.605Z,320
2017-04-11T10:41:13.190Z,340
2017-04-11T10:42:13.776Z,340
2017-04-11T10:43:14.357Z,345
2017-04-11T10:44:14.940Z,325
2017-04-11T10:45:15.521Z,305
2017-04-11T10:46:16.105Z,315
2017-04-11T10:47:16.686Z,305
2017-04-11T10:48:17.269Z,305
2017-04-11T10:49:17.867Z,300
2017-04-11T10:50:18.450Z,315
2017-04-11T10:51:19.032Z,350
2017-04-11T10:52:19.617Z,380
2017-04-11T10:53:20.199Z,380
2017-04-11T10:54:20.783Z,375
2017-04-11T10:55:21.365Z,370
2017-04-11T10:56:22.150Z,365
2017-04-11T10:57:22.751Z,350
2017-04-11T10:58:23.332Z,325
2017-04-11T10:59:23.933Z,335
2017-04-11T11:00:24.515Z,330
2017-04-11T11:01:25.100Z,330
2017-04-11T11:02:25.700Z,340
2017-04-11T11:03:26.300Z,335
2017-04-11T11:04:26.900Z,310
2017-04-11T11:05:27.481Z,260
2017-04-11T11:06:28.066Z,210
2017-04-11T11:07:28.645Z,205
2017-04-11T11:08:29.229Z,225
2017-04-11T11:09:29.811Z,250
2017-04-11T11:10:30.393Z,245
2017-04-11T11:11:30.975Z,245
2017-04-11T11:12:31.559Z,235
2017-04-11T11:13:32.141Z,200
2017-04-11T11:14:32.722Z,200
2017-04-11T11:15:33.303Z,200
2017-04-11T11:16:34.085Z,200
2017-04-11T11:17:34.667Z,195
2017-04-11T11:18:35.249Z,195
2017-04-11T11:19:35.832Z,205
2017-04-11T11:20:36.413Z,220
2017-04-11T11:21:36.994Z,230
2017-04-11T11:22:37.575Z,235
2017-04-11T11:23:38.160Z,245
2017-04-11T11:24:38.740Z,270
2017-04-11T11:25:39.323Z,280
2017-04-11T11:26:39.904Z,285
2017-04-11T11:27:40.488Z,300
2017-04-11T11:28:41.069Z,300
2017-04-11T11:29:41.651Z,300
2017-04-11T11:30:42.233Z,305
2017-04-11T11:31:42.817Z,310
2017-04-11T11:32:43.399Z,325
2017-04-11T11:33:43.983Z,325
2017-04-11T11:34:44.565Z,325
2017-04-11T11:35:45.165Z,330
2017-04-11T11:36:45.766Z,315
2017-04-11T11:37:46.350Z,320
2017-04-11T11:38:46.933Z,325
2017-04-11T11:39:47.519Z,340
2017-04-11T11:40:48.099Z,380
2017-04-11T11:41:48.899Z,380
2017-04-11T11:42:49.482Z,370
2017-04-11T11:43:50.067Z,355
2017-04-11T11:44:50.651Z,345
2017-04-11T11:45:51.234Z,340
2017-04-11T11:46:51.815Z,305
2017-04-11T11:47:52.398Z,310
2017-04-11T11:48:52.982Z,320
2017-04-11T11:49:53.579Z,320
2017-04-11T11:50:54.165Z,335
2017-04-11T11:51:54.749Z,355
2017-04-11T11:52:55.333Z,370
2017-04-11T11:53:55.916Z,390
2017-04-11T11:54:56.502Z,400
2017-04-11T11:55:57.087Z,415
2017-04-11T11:56:57.689Z,430
2017-04-11T11:57:58.302Z,435
2017-04-11T11:58:58.857Z,435
2017-04-11T11:59:59.442Z,425
2017-04-11T12:01:00.024Z,420
2017-04-11T12:02:00.609Z,405
2017-04-11T12:03:01.193Z,385
2017-04-11T12:04:01.780Z,335
2017-04-11T12:05:02.359Z,290
2017-04-11T12:06:02.943Z,235
2017-04-11T12:07:03.727Z,215
2017-04-11T12:08:04.310Z,295
2017-04-11T12:09:04.897Z,330
2017-04-11T12:10:05.483Z,370
2017-04-11T12:11:06.066Z,350
2017-04-11T12:12:06.651Z,295
2017-04-11T12:13:07.233Z,245
2017-04-11T12:14:07.835Z,230
2017-04-11T12:15:08.418Z,190
2017-04-11T12:16:09.003Z,155
2017-04-11T12:17:09.586Z,120
2017-04-11T12:18:10.170Z,105
2017-04-11T12:19:10.751Z,90
2017-04-11T12:20:11.335Z,80
2017-04-11T12:21:11.915Z,75
2017-04-11T12:22:12.699Z,70
2017-04-11T12:23:13.296Z,80
2017-04-11T12:24:13.879Z,90
2017-04-11T12:25:14.460Z,95
2017-04-11T12:26:15.042Z,95
2017-04-11T12:27:15.647Z,90
2017-04-11T12:28:16.241Z,100
2017-04-11T12:29:16.824Z,110
2017-04-11T12:30:17.421Z,135
2017-04-11T12:31:18.002Z,155
2017-04-11T12:32:18.786Z,180
2017-04-11T12:33:19.368Z,195
2017-04-11T12:34:19.967Z,220
2017-04-11T12:35:20.551Z,245
2017-04-11T12:36:21.132Z,265
2017-04-11T12:37:21.716Z,275
2017-04-11T12:38:22.296Z,280
2017-04-11T12:39:22.880Z,260
2017-04-11T12:40:23.462Z,245
2017-04-11T12:41:24.047Z,235
2017-04-11T12:42:24.628Z,230
2017-04-11T12:43:25.212Z,250
2017-04-11T12:44:25.810Z,245
2017-04-11T12:45:26.394Z,200
2017-04-11T12:46:26.976Z,165
2017-04-11T12:47:27.766Z,165
2017-04-11T12:48:28.347Z,155
2017-04-11T12:49:28.926Z,140
2017-04-11T12:50:29.527Z,130
2017-04-11T12:51:30.110Z,135
2017-04-11T12:52:30.697Z,145
2017-04-11T12:53:31.276Z,145
2017-04-11T12:54:31.877Z,140
2017-04-11T12:55:32.460Z,140
2017-04-11T12:56:33.042Z,125
2017-04-11T12:57:33.825Z,105
2017-04-11T12:58:34.405Z,90
2017-04-11T12:59:34.985Z,85
2017-04-11T13:00:35.568Z,85
2017-04-11T13:01:36.151Z,85
2017-04-11T13:02:36.728Z,80
2017-04-11T13:03:37.310Z,75
2017-04-11T13:04:37.892Z,75
2017-04-11T13:05:38.470Z,70
2017-04-11T13:06:39.049Z,70
2017-04-11T13:07:39.630Z,70
2017-04-11T13:08:40.209Z,80
2017-04-11T13:09:40.788Z,95
2017-04-11T13:10:41.367Z,110
2017-04-11T13:11:41.950Z,115
2017-04-11T13:12:42.531Z,130
2017-04-11T13:13:43.112Z,160
2017-04-11T13:14:43.710Z,170
2017-04-11T13:15:44.292Z,155
2017-04-11T13:16:44.875Z,160
2017-04-11T13:17:45.655Z,175
2017-04-11T13:18:46.237Z,215
2017-04-11T13:19:46.822Z,235
2017-04-11T13:20:47.403Z,255
2017-04-11T13:21:47.984Z,270
2017-04-11T13:22:48.566Z,270
2017-04-11T13:23:49.149Z,275
2017-04-11T13:24:49.731Z,245
2017-04-11T13:25:50.313Z,225
2017-04-11T13:26:50.896Z,200
2017-04-11T13:27:51.480Z,190
2017-04-11T13:28:52.061Z,170
2017-04-11T13:29:52.642Z,155
2017-04-11T13:30:53.224Z,150
2017-04-11T13:31:53.808Z,150
2017-04-11T13:32:54.389Z,165
2017-04-11T13:33:54.971Z,170
2017-04-11T13:34:55.553Z,180
2017-04-11T13:35:56.158Z,185
2017-04-11T13:36:56.734Z,190
2017-04-11T13:37:57.518Z,185
2017-04-11T13:38:58.100Z,185
2017-04-11T13:39:58.683Z,180
2017-04-11T13:40:59.267Z,165
2017-04-11T13:41:59.848Z,140
2017-04-11T13:43:00.430Z,125
2017-04-11T13:44:01.012Z,115
2017-04-11T13:45:01.598Z,115
2017-04-11T13:46:02.177Z,120
2017-04-11T13:47:02.760Z,130
2017-04-11T13:48:03.545Z,140
2017-04-11T13:49:04.142Z,145
2017-04-11T13:50:04.739Z,150
2017-04-11T13:51:05.322Z,155
2017-04-11T13:52:05.905Z,160
2017-04-11T13:53:06.488Z,145
2017-04-11T13:54:07.069Z,125
2017-04-11T13:55:07.653Z,120
2017-04-11T13:56:08.260Z,115
2017-04-11T13:57:08.836Z,130
2017-04-11T13:58:09.417Z,140
2017-04-11T13:59:09.999Z,150
2017-04-11T14:00:10.582Z,165
2017-04-11T14:01:11.166Z,160
2017-04-11T14:02:11.763Z,150
2017-04-11T14:03:12.547Z,165
2017-04-11T14:04:13.154Z,190
2017-04-11T14:05:13.753Z,210
2017-04-11T14:06:14.335Z,200
2017-04-11T14:07:14.916Z,195
2017-04-11T14:08:15.499Z,210
2017-04-11T14:09:16.082Z,220
2017-04-11T14:10:16.666Z,205
2017-04-11T14:11:17.247Z,195
2017-04-11T14:12:17.831Z,175
2017-04-11T14:13:18.413Z,160
2017-04-11T14:14:19.012Z,170
2017-04-11T14:15:19.596Z,180
2017-04-11T14:16:20.178Z,170
2017-04-11T14:17:20.764Z,165
2017-04-11T14:18:21.543Z,160
2017-04-11T14:19:22.126Z,185